createdAt,value
2023-04-27T00:08:22.008Z,5.76
2023-04-27T00:18:43.386Z,5.71
2023-04-27T00:29:04.753Z,5.70
2023-04-27T00:39:26.112Z,5.64
2023-04-27T00:49:47.450Z,5.55
2023-04-27T01:00:11.006Z,5.38
2023-04-27T01:10:32.520Z,5.22
2023-04-27T01:20:54.583Z,5.13
2023-04-27T01:31:16.054Z,5.08
2023-04-27T01:41:37.560Z,5.04
2023-04-27T01:51:59.158Z,4.95
2023-04-27T02:02:20.728Z,5.04
2023-04-27T02:12:42.233Z,4.99
2023-04-27T02:23:03.706Z,4.83
2023-04-27T02:33:25.173Z,4.83
2023-04-27T02:43:46.891Z,4.82
2023-04-27T02:54:09.091Z,4.74
2023-04-27T03:04:30.538Z,4.68
2023-04-27T03:14:51.973Z,4.60
2023-04-27T03:25:13.522Z,4.64
2023-04-27T03:35:34.884Z,4.56
2023-04-27T03:45:56.390Z,4.59
2023-04-27T03:56:17.833Z,4.54
2023-04-27T04:06:39.203Z,4.53
2023-04-27T04:17:00.658Z,4.49
2023-04-27T04:27:22.091Z,4.55
2023-04-27T04:37:43.442Z,4.51
2023-04-27T04:48:05.137Z,4.51
2023-04-27T04:58:26.519Z,4.58
2023-04-27T05:08:48.262Z,4.71
2023-04-27T05:19:09.600Z,4.80
2023-04-27T05:29:31.310Z,4.93
2023-04-27T05:39:52.696Z,5.20
2023-04-27T05:50:14.133Z,5.45
2023-04-27T06:00:36.940Z,5.79
2023-04-27T06:10:58.412Z,6.09
2023-04-27T06:21:19.807Z,6.40
2023-04-27T06:31:41.224Z,6.65
2023-04-27T06:42:04.379Z,6.94
2023-04-27T06:52:25.825Z,7.33
2023-04-27T07:02:47.290Z,7.66
2023-04-27T07:13:09.636Z,7.91
2023-04-27T07:23:31.596Z,8.12
2023-04-27T07:33:53.063Z,8.29
2023-04-27T07:44:15.125Z,8.45
2023-04-27T07:54:36.482Z,8.60
2023-04-27T08:04:58.289Z,8.65
2023-04-27T08:15:20.257Z,8.86
2023-04-27T08:25:41.605Z,8.98
2023-04-27T08:36:03.111Z,9.34
2023-04-27T08:46:27.040Z,9.87
2023-04-27T08:56:48.514Z,9.98
2023-04-27T09:07:14.038Z,10.07
2023-04-27T09:17:38.704Z,10.11
2023-04-27T09:28:00.736Z,10.05
2023-04-27T09:38:22.904Z,10.05
2023-04-27T09:48:44.271Z,10.09
2023-04-27T09:59:16.721Z,10.40
2023-04-27T10:09:47.270Z,10.89
2023-04-27T10:20:09.316Z,11.03
2023-04-27T10:30:34.749Z,11.43
2023-04-27T10:41:03.370Z,11.96
2023-04-27T10:51:24.924Z,12.22
2023-04-27T11:01:48.439Z,12.49
2023-04-27T11:12:12.748Z,12.21
2023-04-27T11:22:34.716Z,12.82
2023-04-27T11:32:56.322Z,12.93
2023-04-27T11:43:17.810Z,13.05
2023-04-27T11:53:39.782Z,12.71
2023-04-27T12:04:02.765Z,12.59
2023-04-27T12:14:24.818Z,12.72
2023-04-27T12:24:46.313Z,13.01
2023-04-27T12:35:08.362Z,12.87
2023-04-27T12:45:29.827Z,12.98
2023-04-27T12:55:51.279Z,13.00
2023-04-27T13:06:12.705Z,13.18
2023-04-27T13:16:34.222Z,13.48
2023-04-27T13:26:55.762Z,13.86
2023-04-27T13:37:17.351Z,14.02
2023-04-27T13:47:42.305Z,13.88
2023-04-27T13:58:03.814Z,13.81
2023-04-27T14:08:25.511Z,13.62
2023-04-27T14:18:47.000Z,13.38
2023-04-27T14:29:08.379Z,13.21
2023-04-27T14:39:29.821Z,13.20
2023-04-27T14:49:51.417Z,13.30
2023-04-27T15:00:14.647Z,13.19
2023-04-27T15:10:36.099Z,13.04
2023-04-27T15:20:58.275Z,12.95
2023-04-27T15:31:19.767Z,12.93
2023-04-27T15:41:41.175Z,13.16
2023-04-27T15:52:02.548Z,13.37
2023-04-27T16:02:24.260Z,13.32
2023-04-27T16:12:45.718Z,13.35
2023-04-27T16:23:07.129Z,13.34
2023-04-27T16:33:28.536Z,13.21
2023-04-27T16:43:50.805Z,13.14
2023-04-27T16:54:12.752Z,13.09
2023-04-27T17:04:39.790Z,12.99
2023-04-27T17:15:01.423Z,12.83
2023-04-27T17:25:23.200Z,12.77
2023-04-27T17:35:44.860Z,12.37
2023-04-27T17:46:07.114Z,12.10
2023-04-27T17:56:28.572Z,11.75
2023-04-27T18:06:50.029Z,11.53
2023-04-27T18:17:11.465Z,11.28
2023-04-27T18:27:33.014Z,11.04
2023-04-27T18:37:54.423Z,10.84
2023-04-27T18:48:15.793Z,10.67
2023-04-27T18:58:37.232Z,10.57
2023-04-27T19:08:58.688Z,10.50
2023-04-27T19:19:20.133Z,10.31
2023-04-27T19:29:52.086Z,10.17
2023-04-27T19:40:13.669Z,10.09
2023-04-27T19:50:38.350Z,9.97
2023-04-27T20:00:59.870Z,9.85
2023-04-27T20:11:21.300Z,9.77
2023-04-27T20:21:43.246Z,9.73
2023-04-27T20:32:04.843Z,9.62
2023-04-27T20:42:26.321Z,9.60
2023-04-27T20:52:47.681Z,9.52
2023-04-27T21:03:09.192Z,9.44
2023-04-27T21:13:30.732Z,9.42
2023-04-27T21:24:04.062Z,9.36
2023-04-27T21:34:29.121Z,9.25
2023-04-27T21:44:50.660Z,9.15
2023-04-27T21:55:12.097Z,9.07
2023-04-27T22:05:33.600Z,9.01
2023-04-27T22:15:55.001Z,8.89
2023-04-27T22:26:16.411Z,8.78
2023-04-27T22:36:37.992Z,8.60
2023-04-27T22:47:01.957Z,8.52
2023-04-27T22:57:23.325Z,8.40
2023-04-27T23:07:46.253Z,8.29
2023-04-27T23:18:07.672Z,8.24
2023-04-27T23:28:29.105Z,8.16
2023-04-27T23:38:51.216Z,8.10
2023-04-27T23:49:12.621Z,8.04
2023-04-27T23:59:35.002Z,7.98
